PWSweather.com
Personal Weather Stations
Station Observations

OlomoucCZ

Lat: 49.5936202181, Lon: 17.2276005149

Elevation: 752

Station Type: Davis Vantage Pro 2 Activ

http://infopocasi-olomouc.cz

High Low Average
Temperature 34.2°F1.2°C 27.6°F-2.4°C 31.0°F-0.6°C
Dew Point 33.4°F0.8°C 27.1°F-2.7°C 30.2°F-1.0°C
Winds 5.8 mph 9.3 kmh Calm Calm 2.0 mph SE3.2 kmh SE
Wind Gusts 8.1 mph13.0 kmh -- 3.0 mph4.8 kmh
Humidity 98% 93% 97%
Pressure 29.48 in998.3 mb 29.35 in993.9 mb -
Precipitation 0.22 in5.6 mm - -
Hour Temp Dew Point Humidity Winds Wind Gusts Pressure Precip Precip Rate Daily Precip Total
12:00 AM 30.8°F-0.7°C 29.0°F-1.7°C 93% Calm Calm 1.2 mph1.9 kmh 29.37 in994.6 mb - 0.00 in0.0 mm 0.00 in0.0 mm
12:30 AM 30.6°F-0.8°C 29.1°F-1.6°C 94% Calm Calm -- 29.37 in994.6 mb - 0.00 in0.0 mm 0.00 in0.0 mm
01:00 AM 29.8°F-1.2°C 28.3°F-2.1°C 94% Calm Calm 1.2 mph1.9 kmh 29.36 in994.2 mb - 0.00 in0.0 mm 0.00 in0.0 mm
01:30 AM 29.7°F-1.3°C 28.2°F-2.1°C 94% 1.2 mph NE1.9 kmh NE 2.3 mph3.7 kmh 29.37 in994.6 mb - 0.00 in0.0 mm 0.00 in0.0 mm
02:00 AM 29.3°F-1.5°C 27.8°F-2.3°C 94% Calm Calm 1.2 mph1.9 kmh 29.37 in994.6 mb - 0.00 in0.0 mm 0.00 in0.0 mm
02:30 AM 28.9°F-1.7°C 27.6°F-2.4°C 95% Calm Calm 2.3 mph3.7 kmh 29.37 in994.6 mb - 0.00 in0.0 mm 0.00 in0.0 mm
03:00 AM 28.9°F-1.7°C 27.6°F-2.4°C 95% 1.2 mph NE1.9 kmh NE 2.3 mph3.7 kmh 29.37 in994.6 mb - 0.00 in0.0 mm 0.00 in0.0 mm
03:30 AM 29.0°F-1.7°C 27.8°F-2.3°C 95% 1.2 mph NE1.9 kmh NE 2.3 mph3.7 kmh 29.37 in994.6 mb - 0.00 in0.0 mm 0.00 in0.0 mm
04:00 AM 29.6°F-1.3°C 28.6°F-1.9°C 96% 2.3 mph NE3.7 kmh NE 3.5 mph5.6 kmh 29.36 in994.2 mb - 0.00 in0.0 mm 0.00 in0.0 mm
04:30 AM 30.8°F-0.7°C 29.5°F-1.4°C 95% 1.2 mph ENE1.9 kmh ENE 1.2 mph1.9 kmh 29.36 in994.2 mb - 0.00 in0.0 mm 0.00 in0.0 mm
05:00 AM 30.7°F-0.7°C 29.2°F-1.6°C 94% 1.2 mph ENE1.9 kmh ENE 2.3 mph3.7 kmh 29.35 in993.9 mb - 0.00 in0.0 mm 0.00 in0.0 mm
05:30 AM 31.3°F-0.4°C 29.7°F-1.3°C 94% 1.2 mph E1.9 kmh E 2.3 mph3.7 kmh 29.35 in993.9 mb - 0.00 in0.0 mm 0.00 in0.0 mm
06:00 AM 32.0°F0.0°C 30.7°F-0.7°C 95% 3.5 mph SE5.6 kmh SE 3.5 mph5.6 kmh 29.36 in994.2 mb - 0.00 in0.0 mm 0.00 in0.0 mm
06:30 AM 31.4°F-0.3°C 30.4°F-0.9°C 96% Calm Calm 1.2 mph1.9 kmh 29.36 in994.2 mb - 0.00 in0.0 mm 0.00 in0.0 mm
07:00 AM 31.4°F-0.3°C 30.6°F-0.8°C 97% 1.2 mph NE1.9 kmh NE 2.3 mph3.7 kmh 29.36 in994.2 mb - 0.03 in0.8 mm 0.03 in0.8 mm
07:30 AM 30.9°F-0.6°C 30.1°F-1.1°C 97% Calm Calm 1.2 mph1.9 kmh 29.36 in994.2 mb - 0.05 in1.3 mm 0.05 in1.3 mm
08:00 AM 30.6°F-0.8°C 29.9°F-1.2°C 97% 1.2 mph NNW1.9 kmh NNW 2.3 mph3.7 kmh 29.37 in994.6 mb - 0.05 in1.3 mm 0.08 in2.0 mm
08:30 AM 30.6°F-0.8°C 30.1°F-1.1°C 98% Calm Calm 1.2 mph1.9 kmh 29.37 in994.6 mb - 0.04 in1.0 mm 0.09 in2.3 mm
09:00 AM 30.8°F-0.7°C 30.3°F-0.9°C 98% Calm Calm -- 29.38 in994.9 mb - 0.04 in1.0 mm 0.12 in3.0 mm
09:30 AM 31.7°F-0.2°C 31.2°F-0.4°C 98% Calm Calm -- 29.38 in994.9 mb - 0.04 in1.0 mm 0.14 in3.6 mm
10:00 AM 31.6°F-0.2°C 31.1°F-0.5°C 98% Calm Calm -- 29.38 in994.9 mb - 0.04 in1.0 mm 0.16 in4.1 mm
10:30 AM 32.1°F0.1°C 31.6°F-0.2°C 98% Calm Calm -- 29.39 in995.3 mb - 0.04 in1.0 mm 0.18 in4.6 mm
11:00 AM 33.0°F0.6°C 32.5°F0.3°C 98% Calm Calm 1.2 mph1.9 kmh 29.38 in994.9 mb - 0.03 in0.8 mm 0.19 in4.8 mm
11:30 AM 32.1°F0.1°C 31.6°F-0.2°C 98% 2.3 mph SW3.7 kmh SW 3.5 mph5.6 kmh 29.38 in994.9 mb - 0.01 in0.3 mm 0.19 in4.8 mm
12:00 PM 32.4°F0.2°C 31.9°F-0.1°C 98% 1.2 mph WSW1.9 kmh WSW 1.2 mph1.9 kmh 29.38 in994.9 mb - 0.01 in0.3 mm 0.20 in5.1 mm
12:30 PM 32.3°F0.2°C 31.5°F-0.3°C 97% 1.2 mph NW1.9 kmh NW 1.2 mph1.9 kmh 29.38 in994.9 mb - 0.02 in0.5 mm 0.21 in5.3 mm
01:00 PM 32.4°F0.2°C 31.9°F-0.1°C 98% Calm Calm 2.3 mph3.7 kmh 29.38 in994.9 mb - 0.02 in0.5 mm 0.22 in5.6 mm
01:30 PM 32.9°F0.5°C 32.4°F0.2°C 98% 1.2 mph NW1.9 kmh NW 1.2 mph1.9 kmh 29.38 in994.9 mb - 0.01 in0.3 mm 0.22 in5.6 mm
02:00 PM 33.2°F0.7°C 32.7°F0.4°C 98% 1.2 mph NW1.9 kmh NW 2.3 mph3.7 kmh 29.39 in995.3 mb - 0.00 in0.0 mm 0.22 in5.6 mm
02:30 PM 34.0°F1.1°C 33.3°F0.7°C 97% 1.2 mph E1.9 kmh E 2.3 mph3.7 kmh 29.39 in995.3 mb - 0.00 in0.0 mm 0.22 in5.6 mm
03:00 PM 34.2°F1.2°C 33.4°F0.8°C 97% 2.3 mph E3.7 kmh E 2.3 mph3.7 kmh 29.40 in995.6 mb - 0.00 in0.0 mm 0.22 in5.6 mm
03:30 PM 33.9°F1.1°C 33.2°F0.7°C 97% 2.3 mph SE3.7 kmh SE 3.5 mph5.6 kmh 29.41 in995.9 mb - 0.00 in0.0 mm 0.22 in5.6 mm
04:00 PM 33.5°F0.8°C 32.8°F0.4°C 97% 1.2 mph SSE1.9 kmh SSE 2.3 mph3.7 kmh 29.41 in995.9 mb - 0.00 in0.0 mm 0.22 in5.6 mm
04:30 PM 33.5°F0.8°C 32.5°F0.3°C 96% 1.2 mph SE1.9 kmh SE 2.3 mph3.7 kmh 29.42 in996.3 mb - 0.00 in0.0 mm 0.22 in5.6 mm
05:00 PM 33.9°F1.1°C 33.1°F0.6°C 97% 3.5 mph SE5.6 kmh SE 3.5 mph5.6 kmh 29.42 in996.3 mb - 0.00 in0.0 mm 0.22 in5.6 mm
05:30 PM 33.5°F0.8°C 32.7°F0.4°C 97% 2.3 mph E3.7 kmh E 3.5 mph5.6 kmh 29.43 in996.6 mb - 0.00 in0.0 mm 0.22 in5.6 mm
06:00 PM 32.9°F0.5°C 32.1°F0.1°C 97% 4.6 mph ESE7.4 kmh ESE 6.9 mph11.1 kmh 29.43 in996.6 mb - 0.00 in0.0 mm 0.22 in5.6 mm
06:30 PM 32.3°F0.2°C 31.8°F-0.1°C 98% 4.6 mph ESE7.4 kmh ESE 5.8 mph9.3 kmh 29.44 in997.0 mb - 0.00 in0.0 mm 0.22 in5.6 mm
07:00 PM 30.9°F-0.6°C 30.4°F-0.9°C 98% 4.6 mph E7.4 kmh E 6.9 mph11.1 kmh 29.44 in997.0 mb - 0.00 in0.0 mm 0.22 in5.6 mm
07:30 PM 30.1°F-1.1°C 29.6°F-1.3°C 98% 3.5 mph ESE5.6 kmh ESE 3.5 mph5.6 kmh 29.45 in997.3 mb - 0.00 in0.0 mm 0.22 in5.6 mm
08:00 PM 29.3°F-1.5°C 28.8°F-1.8°C 98% 3.5 mph ESE5.6 kmh ESE 3.5 mph5.6 kmh 29.45 in997.3 mb - 0.00 in0.0 mm 0.22 in5.6 mm
08:30 PM 28.5°F-1.9°C 28.0°F-2.2°C 98% 2.3 mph E3.7 kmh E 3.5 mph5.6 kmh 29.45 in997.3 mb - 0.00 in0.0 mm 0.22 in5.6 mm
09:00 PM 28.1°F-2.2°C 27.6°F-2.4°C 98% 2.3 mph ESE3.7 kmh ESE 3.5 mph5.6 kmh 29.46 in997.6 mb - 0.00 in0.0 mm 0.22 in5.6 mm
09:30 PM 28.2°F-2.1°C 27.7°F-2.4°C 98% 3.5 mph ESE5.6 kmh ESE 3.5 mph5.6 kmh 29.47 in998.0 mb - 0.00 in0.0 mm 0.22 in5.6 mm
10:00 PM 27.8°F-2.3°C 27.3°F-2.6°C 98% 5.8 mph SE9.3 kmh SE 6.9 mph11.1 kmh 29.47 in998.0 mb - 0.00 in0.0 mm 0.22 in5.6 mm
10:30 PM 27.8°F-2.3°C 27.3°F-2.6°C 98% 5.8 mph E9.3 kmh E 6.9 mph11.1 kmh 29.48 in998.3 mb - 0.00 in0.0 mm 0.22 in5.6 mm
11:00 PM 27.8°F-2.3°C 27.3°F-2.6°C 98% 5.8 mph ESE9.3 kmh ESE 8.1 mph13.0 kmh 29.48 in998.3 mb - 0.00 in0.0 mm 0.22 in5.6 mm
11:30 PM 27.6°F-2.4°C 27.1°F-2.7°C 98% 3.5 mph ESE5.6 kmh ESE 3.5 mph5.6 kmh 29.48 in998.3 mb - 0.00 in0.0 mm 0.22 in5.6 mm